Yale, MI

12:45 AM EST on February 07, 2016 (GMT -0500)
Hog Town, Melvin MI | | Change Station
CLOSE
Current Station
Personal Weather Station
Location: Melvin, MI
Elevation: 830 ft
Nearby Weather Stations

Elev 830 ft 43.18 °N, 82.86 °W | Updated 4 minutes ago

Overcast
Overcast
32.4 °F
Feels Like 32 °F
N
3.0
Wind Variable Wind from SSE
Gusts 6.0 mph

Today
High -- | Low -- °F
--% Chance of Precip.
Yesterday
High -- | Low -- °F
Precip. -- in
Pressure 30.10 in
Visibility 10.0 miles
Clouds Overcast 11000 ft
Windchill 32 °F
Dew Point 25 °F
Humidity 75%
Rainfall 0.00 in
Snow Depth Not available.
7:40 AM 5:51 PM
Waning Crescent, 3% visible
METAR KPHN 070537Z AUTO 19005KT 10SM OVC110 00/M03 A3010 RMK AO2
Pressure 30.10 in
Visibility 10.0 miles
Clouds Overcast 11000 ft
Windchill 32 °F
Dew Point 25 °F
Humidity 75%
Rainfall 0.00 in
Snow Depth Not available.
7:40 AM 5:51 PM
Waning Crescent, 3% visible
METAR KPHN 070537Z AUTO 19005KT 10SM OVC110 00/M03 A3010 RMK AO2

10-Day Weather Forecast

Almanac

Astronomy

Feb. 07, 2016 Rise Set
Actual Time
Civil Twilight
Nautical Twilight
Astronomical Twilight
Moon
Length of Visible Light
Length of Day
Tomorrow will be .
, % of the Moon is Illuminated

Today's Extremes

State Highs State Lows

Community

WunderPhotos

Upload Photos

1,891,167 photos uploaded!

WunderBlog® & News

Nearby

Air Quality

  Air Quality AQ Index Pollutant
Not available.

Snow Depth

Station Depth Elevation

Earthquake Activity

City Distance Mag. Time & Date
Minimum magnitude displayed is 2.5.

Coastal Water Temperatures

Place Temperature

Stations

Nearby Weather Stations

Station Location Temp. Windchill Dew Point Humidity Wind Precip. Elev Updated Type
                   

Watches & Warnings

There are currently no watches in effect.